Terminal Aerodrome Forecast
Issued by NWS Shreveport, LA

Home | Current Version | Previous Version | Text Only | Print | Product List | Glossary On
Versions: 1 2 3 4 5 6 7 8 9 10 11 12
000
FTUS44 KSHV 230538
TAFSHV
TAF
KSHV 230538Z 2306/2406 00000KT P6SM SKC
     FM230800 VRB03KT P6SM FEW250
     FM231400 VRB04KT P6SM SCT180
     FM240000 00000KT P6SM SKC=

USA.gov is the U.S. government's official web portal to all federal, state and local government web resources and services.